sensor_id;sensor_type;location;lat;lon;timestamp;P1;durP1;ratioP1;P2;durP2;ratioP2
62574;SDS011;53112;45.602;11.904;2022-08-20T00:00:28;4.22;;;3.10;;
62574;SDS011;53112;45.602;11.904;2022-08-20T00:02:56;5.88;;;3.30;;
62574;SDS011;53112;45.602;11.904;2022-08-20T00:05:30;6.05;;;3.30;;
62574;SDS011;53112;45.602;11.904;2022-08-20T00:07:58;7.57;;;3.78;;
62574;SDS011;53112;45.602;11.904;2022-08-20T00:10:25;8.00;;;3.50;;
62574;SDS011;53112;45.602;11.904;2022-08-20T00:12:53;6.53;;;3.25;;
62574;SDS011;53112;45.602;11.904;2022-08-20T00:15:21;5.88;;;3.50;;
62574;SDS011;53112;45.602;11.904;2022-08-20T00:17:50;5.72;;;3.33;;
62574;SDS011;53112;45.602;11.904;2022-08-20T00:20:17;4.80;;;3.30;;
62574;SDS011;53112;45.602;11.904;2022-08-20T00:22:46;4.82;;;3.45;;
62574;SDS011;53112;45.602;11.904;2022-08-20T00:25:13;4.03;;;3.10;;
62574;SDS011;53112;45.602;11.904;2022-08-20T00:27:40;5.55;;;2.97;;
62574;SDS011;53112;45.602;11.904;2022-08-20T00:30:07;5.10;;;3.17;;
62574;SDS011;53112;45.602;11.904;2022-08-20T00:32:45;6.15;;;3.28;;
62574;SDS011;53112;45.602;11.904;2022-08-20T00:35:15;7.32;;;3.67;;
62574;SDS011;53112;45.602;11.904;2022-08-20T00:37:43;5.88;;;3.60;;
62574;SDS011;53112;45.602;11.904;2022-08-20T00:40:11;6.10;;;3.70;;
62574;SDS011;53112;45.602;11.904;2022-08-20T00:42:44;5.30;;;3.75;;
62574;SDS011;53112;45.602;11.904;2022-08-20T00:45:13;5.13;;;3.50;;
62574;SDS011;53112;45.602;11.904;2022-08-20T00:47:40;4.70;;;3.50;;
62574;SDS011;53112;45.602;11.904;2022-08-20T00:50:11;5.88;;;3.60;;
62574;SDS011;53112;45.602;11.904;2022-08-20T00:52:42;6.93;;;3.45;;
62574;SDS011;53112;45.602;11.904;2022-08-20T00:55:12;5.07;;;3.30;;
62574;SDS011;53112;45.602;11.904;2022-08-20T00:57:42;5.32;;;3.70;;
62574;SDS011;53112;45.602;11.904;2022-08-20T01:00:22;7.85;;;4.05;;
62574;SDS011;53112;45.602;11.904;2022-08-20T01:02:53;6.15;;;4.10;;
62574;SDS011;53112;45.602;11.904;2022-08-20T01:05:20;4.47;;;3.35;;
62574;SDS011;53112;45.602;11.904;2022-08-20T01:07:48;6.47;;;3.60;;
62574;SDS011;53112;45.602;11.904;2022-08-20T01:10:19;7.90;;;4.43;;
62574;SDS011;53112;45.602;11.904;2022-08-20T01:12:48;6.82;;;4.00;;
62574;SDS011;53112;45.602;11.904;2022-08-20T01:15:18;8.18;;;4.15;;
62574;SDS011;53112;45.602;11.904;2022-08-20T01:17:52;5.88;;;4.10;;
62574;SDS011;53112;45.602;11.904;2022-08-20T01:20:23;6.93;;;3.75;;
62574;SDS011;53112;45.602;11.904;2022-08-20T01:25:53;6.43;;;3.72;;
62574;SDS011;53112;45.602;11.904;2022-08-20T01:28:33;7.15;;;3.63;;
62574;SDS011;53112;45.602;11.904;2022-08-20T01:31:03;6.47;;;3.65;;
62574;SDS011;53112;45.602;11.904;2022-08-20T01:33:31;8.50;;;3.55;;
62574;SDS011;53112;45.602;11.904;2022-08-20T01:35:57;6.93;;;4.07;;
62574;SDS011;53112;45.602;11.904;2022-08-20T01:38:23;6.25;;;3.70;;
62574;SDS011;53112;45.602;11.904;2022-08-20T01:43:33;5.00;;;3.90;;
62574;SDS011;53112;45.602;11.904;2022-08-20T01:45:59;5.88;;;3.78;;
62574;SDS011;53112;45.602;11.904;2022-08-20T01:48:26;6.80;;;3.40;;
62574;SDS011;53112;45.602;11.904;2022-08-20T01:51:02;5.03;;;3.42;;
62574;SDS011;53112;45.602;11.904;2022-08-20T01:53:35;5.60;;;3.60;;
62574;SDS011;53112;45.602;11.904;2022-08-20T01:56:05;6.75;;;3.70;;
62574;SDS011;53112;45.602;11.904;2022-08-20T01:58:36;6.80;;;3.58;;
62574;SDS011;53112;45.602;11.904;2022-08-20T02:01:04;6.50;;;3.80;;
62574;SDS011;53112;45.602;11.904;2022-08-20T02:03:31;8.80;;;4.20;;
62574;SDS011;53112;45.602;11.904;2022-08-20T02:06:00;6.40;;;3.88;;
62574;SDS011;53112;45.602;11.904;2022-08-20T02:08:27;6.30;;;3.92;;
62574;SDS011;53112;45.602;11.904;2022-08-20T02:10:57;6.97;;;3.97;;
62574;SDS011;53112;45.602;11.904;2022-08-20T02:13:23;8.88;;;4.20;;
62574;SDS011;53112;45.602;11.904;2022-08-20T02:15:49;6.18;;;3.80;;
62574;SDS011;53112;45.602;11.904;2022-08-20T02:18:15;6.57;;;3.25;;
62574;SDS011;53112;45.602;11.904;2022-08-20T02:20:41;4.80;;;3.25;;
62574;SDS011;53112;45.602;11.904;2022-08-20T02:23:08;5.63;;;3.25;;
62574;SDS011;53112;45.602;11.904;2022-08-20T02:25:36;6.60;;;3.53;;
62574;SDS011;53112;45.602;11.904;2022-08-20T02:28:06;6.25;;;3.20;;
62574;SDS011;53112;45.602;11.904;2022-08-20T02:30:40;6.00;;;3.25;;
62574;SDS011;53112;45.602;11.904;2022-08-20T02:33:09;6.07;;;3.13;;
62574;SDS011;53112;45.602;11.904;2022-08-20T02:35:38;4.40;;;2.70;;
62574;SDS011;53112;45.602;11.904;2022-08-20T02:38:07;4.35;;;2.90;;
62574;SDS011;53112;45.602;11.904;2022-08-20T02:40:35;5.40;;;3.13;;
62574;SDS011;53112;45.602;11.904;2022-08-20T02:43:02;5.18;;;2.88;;
62574;SDS011;53112;45.602;11.904;2022-08-20T02:45:30;5.72;;;3.00;;
62574;SDS011;53112;45.602;11.904;2022-08-20T02:48:01;4.03;;;2.72;;
62574;SDS011;53112;45.602;11.904;2022-08-20T02:50:28;3.88;;;2.85;;
62574;SDS011;53112;45.602;11.904;2022-08-20T02:52:55;6.13;;;3.35;;
62574;SDS011;53112;45.602;11.904;2022-08-20T02:55:21;5.90;;;3.75;;
62574;SDS011;53112;45.602;11.904;2022-08-20T02:57:48;5.35;;;3.53;;
62574;SDS011;53112;45.602;11.904;2022-08-20T03:00:18;7.00;;;3.38;;
62574;SDS011;53112;45.602;11.904;2022-08-20T03:02:46;6.75;;;3.15;;
62574;SDS011;53112;45.602;11.904;2022-08-20T03:05:13;6.25;;;3.47;;
62574;SDS011;53112;45.602;11.904;2022-08-20T03:07:43;6.88;;;3.47;;
62574;SDS011;53112;45.602;11.904;2022-08-20T03:10:11;6.60;;;3.90;;
62574;SDS011;53112;45.602;11.904;2022-08-20T03:12:39;6.32;;;3.80;;
62574;SDS011;53112;45.602;11.904;2022-08-20T03:15:07;7.65;;;4.03;;
62574;SDS011;53112;45.602;11.904;2022-08-20T03:17:34;7.30;;;3.85;;
62574;SDS011;53112;45.602;11.904;2022-08-20T03:20:04;6.65;;;4.03;;
62574;SDS011;53112;45.602;11.904;2022-08-20T03:22:31;7.85;;;4.22;;
62574;SDS011;53112;45.602;11.904;2022-08-20T03:24:57;6.10;;;3.85;;
62574;SDS011;53112;45.602;11.904;2022-08-20T03:27:23;7.28;;;3.67;;
62574;SDS011;53112;45.602;11.904;2022-08-20T03:29:49;6.13;;;3.42;;
62574;SDS011;53112;45.602;11.904;2022-08-20T03:32:16;6.28;;;3.50;;
62574;SDS011;53112;45.602;11.904;2022-08-20T03:34:42;5.25;;;3.70;;
62574;SDS011;53112;45.602;11.904;2022-08-20T03:37:08;4.28;;;3.10;;
62574;SDS011;53112;45.602;11.904;2022-08-20T03:39:36;4.13;;;2.90;;
62574;SDS011;53112;45.602;11.904;2022-08-20T03:42:03;5.28;;;3.10;;
62574;SDS011;53112;45.602;11.904;2022-08-20T03:44:30;5.45;;;3.28;;
62574;SDS011;53112;45.602;11.904;2022-08-20T03:46:56;7.40;;;3.75;;
62574;SDS011;53112;45.602;11.904;2022-08-20T03:49:22;5.22;;;3.55;;
62574;SDS011;53112;45.602;11.904;2022-08-20T03:51:49;8.60;;;4.05;;
62574;SDS011;53112;45.602;11.904;2022-08-20T03:54:15;10.02;;;4.20;;
62574;SDS011;53112;45.602;11.904;2022-08-20T03:56:41;6.28;;;3.40;;
62574;SDS011;53112;45.602;11.904;2022-08-20T03:59:07;7.32;;;3.70;;
62574;SDS011;53112;45.602;11.904;2022-08-20T04:01:33;6.43;;;3.40;;
62574;SDS011;53112;45.602;11.904;2022-08-20T04:03:59;7.13;;;3.55;;
62574;SDS011;53112;45.602;11.904;2022-08-20T04:06:25;5.97;;;3.53;;
62574;SDS011;53112;45.602;11.904;2022-08-20T04:08:54;7.20;;;4.05;;
62574;SDS011;53112;45.602;11.904;2022-08-20T04:11:20;8.00;;;4.43;;
62574;SDS011;53112;45.602;11.904;2022-08-20T04:13:48;7.32;;;4.38;;
62574;SDS011;53112;45.602;11.904;2022-08-20T04:16:14;8.23;;;4.63;;
62574;SDS011;53112;45.602;11.904;2022-08-20T04:18:39;8.00;;;4.45;;
62574;SDS011;53112;45.602;11.904;2022-08-20T04:21:06;6.50;;;3.92;;
62574;SDS011;53112;45.602;11.904;2022-08-20T04:23:32;8.23;;;3.80;;
62574;SDS011;53112;45.602;11.904;2022-08-20T04:25:58;7.75;;;4.45;;
62574;SDS011;53112;45.602;11.904;2022-08-20T04:28:24;5.93;;;3.90;;
62574;SDS011;53112;45.602;11.904;2022-08-20T04:30:59;6.78;;;3.38;;
62574;SDS011;53112;45.602;11.904;2022-08-20T04:33:26;6.85;;;3.47;;
62574;SDS011;53112;45.602;11.904;2022-08-20T04:35:55;6.75;;;3.80;;
62574;SDS011;53112;45.602;11.904;2022-08-20T04:38:27;5.20;;;3.67;;
62574;SDS011;53112;45.602;11.904;2022-08-20T04:40:54;7.95;;;3.72;;
62574;SDS011;53112;45.602;11.904;2022-08-20T04:43:24;6.82;;;3.88;;
62574;SDS011;53112;45.602;11.904;2022-08-20T04:45:59;7.00;;;3.80;;
62574;SDS011;53112;45.602;11.904;2022-08-20T04:48:30;6.15;;;3.83;;
62574;SDS011;53112;45.602;11.904;2022-08-20T04:50:57;5.70;;;3.70;;
62574;SDS011;53112;45.602;11.904;2022-08-20T04:53:25;7.47;;;3.67;;
62574;SDS011;53112;45.602;11.904;2022-08-20T04:55:56;6.13;;;3.70;;
62574;SDS011;53112;45.602;11.904;2022-08-20T04:58:31;4.57;;;3.13;;
62574;SDS011;53112;45.602;11.904;2022-08-20T05:01:02;8.95;;;3.60;;
62574;SDS011;53112;45.602;11.904;2022-08-20T05:03:30;6.38;;;3.47;;
62574;SDS011;53112;45.602;11.904;2022-08-20T05:05:56;5.20;;;3.08;;
62574;SDS011;53112;45.602;11.904;2022-08-20T05:08:23;6.75;;;3.30;;
62574;SDS011;53112;45.602;11.904;2022-08-20T05:10:50;5.03;;;3.22;;
62574;SDS011;53112;45.602;11.904;2022-08-20T05:13:18;5.30;;;3.40;;
62574;SDS011;53112;45.602;11.904;2022-08-20T05:15:44;8.27;;;3.97;;
62574;SDS011;53112;45.602;11.904;2022-08-20T05:18:10;6.55;;;3.42;;
62574;SDS011;53112;45.602;11.904;2022-08-20T05:20:38;5.35;;;3.38;;
62574;SDS011;53112;45.602;11.904;2022-08-20T05:23:09;7.30;;;3.92;;
62574;SDS011;53112;45.602;11.904;2022-08-20T05:25:36;5.78;;;3.33;;
62574;SDS011;53112;45.602;11.904;2022-08-20T05:28:06;6.85;;;3.50;;
62574;SDS011;53112;45.602;11.904;2022-08-20T05:30:36;7.75;;;3.90;;
62574;SDS011;53112;45.602;11.904;2022-08-20T05:33:04;5.30;;;3.20;;
62574;SDS011;53112;45.602;11.904;2022-08-20T05:35:32;7.30;;;3.90;;
62574;SDS011;53112;45.602;11.904;2022-08-20T05:38:00;6.28;;;3.40;;
62574;SDS011;53112;45.602;11.904;2022-08-20T05:40:27;6.70;;;3.47;;
62574;SDS011;53112;45.602;11.904;2022-08-20T05:42:53;5.57;;;3.47;;
62574;SDS011;53112;45.602;11.904;2022-08-20T05:45:19;4.45;;;3.00;;
62574;SDS011;53112;45.602;11.904;2022-08-20T05:47:46;5.25;;;2.80;;
62574;SDS011;53112;45.602;11.904;2022-08-20T05:50:13;6.95;;;3.20;;
62574;SDS011;53112;45.602;11.904;2022-08-20T05:52:41;5.80;;;3.35;;
62574;SDS011;53112;45.602;11.904;2022-08-20T05:55:08;4.15;;;3.08;;
62574;SDS011;53112;45.602;11.904;2022-08-20T05:57:38;5.38;;;3.13;;
62574;SDS011;53112;45.602;11.904;2022-08-20T06:00:06;5.45;;;3.05;;
62574;SDS011;53112;45.602;11.904;2022-08-20T06:02:35;7.18;;;3.25;;
62574;SDS011;53112;45.602;11.904;2022-08-20T06:05:20;4.32;;;2.92;;
62574;SDS011;53112;45.602;11.904;2022-08-20T06:07:46;5.88;;;3.30;;
62574;SDS011;53112;45.602;11.904;2022-08-20T06:10:15;8.25;;;3.50;;
62574;SDS011;53112;45.602;11.904;2022-08-20T06:12:41;6.88;;;3.22;;
62574;SDS011;53112;45.602;11.904;2022-08-20T06:15:11;4.63;;;2.92;;
62574;SDS011;53112;45.602;11.904;2022-08-20T06:17:38;6.25;;;3.10;;
62574;SDS011;53112;45.602;11.904;2022-08-20T06:20:05;5.20;;;3.30;;
62574;SDS011;53112;45.602;11.904;2022-08-20T06:22:33;5.72;;;2.83;;
62574;SDS011;53112;45.602;11.904;2022-08-20T06:25:00;4.53;;;2.85;;
62574;SDS011;53112;45.602;11.904;2022-08-20T06:27:27;4.40;;;2.70;;
62574;SDS011;53112;45.602;11.904;2022-08-20T06:29:52;4.03;;;2.47;;
62574;SDS011;53112;45.602;11.904;2022-08-20T06:32:19;5.57;;;3.17;;
62574;SDS011;53112;45.602;11.904;2022-08-20T06:34:48;3.65;;;2.78;;
62574;SDS011;53112;45.602;11.904;2022-08-20T06:37:34;3.90;;;2.80;;
62574;SDS011;53112;45.602;11.904;2022-08-20T06:40:12;4.57;;;2.70;;
62574;SDS011;53112;45.602;11.904;2022-08-20T06:42:40;4.38;;;2.65;;
62574;SDS011;53112;45.602;11.904;2022-08-20T06:45:11;4.85;;;2.47;;
62574;SDS011;53112;45.602;11.904;2022-08-20T06:47:41;5.75;;;2.40;;
62574;SDS011;53112;45.602;11.904;2022-08-20T06:50:09;3.83;;;2.40;;
62574;SDS011;53112;45.602;11.904;2022-08-20T06:52:38;5.10;;;2.50;;
62574;SDS011;53112;45.602;11.904;2022-08-20T06:55:06;3.00;;;2.20;;
62574;SDS011;53112;45.602;11.904;2022-08-20T06:57:34;5.85;;;2.30;;
62574;SDS011;53112;45.602;11.904;2022-08-20T07:00:03;3.78;;;2.00;;
62574;SDS011;53112;45.602;11.904;2022-08-20T07:02:35;3.58;;;2.10;;
62574;SDS011;53112;45.602;11.904;2022-08-20T07:05:02;2.53;;;1.90;;
62574;SDS011;53112;45.602;11.904;2022-08-20T07:07:29;2.85;;;1.92;;
62574;SDS011;53112;45.602;11.904;2022-08-20T07:10:06;4.50;;;2.15;;
62574;SDS011;53112;45.602;11.904;2022-08-20T07:12:34;3.55;;;2.03;;
62574;SDS011;53112;45.602;11.904;2022-08-20T07:15:02;3.75;;;2.10;;
62574;SDS011;53112;45.602;11.904;2022-08-20T07:17:28;4.60;;;2.20;;
62574;SDS011;53112;45.602;11.904;2022-08-20T07:19:54;4.65;;;2.30;;
62574;SDS011;53112;45.602;11.904;2022-08-20T07:22:20;4.35;;;2.17;;
62574;SDS011;53112;45.602;11.904;2022-08-20T07:24:47;6.18;;;2.55;;
62574;SDS011;53112;45.602;11.904;2022-08-20T07:27:13;3.65;;;2.20;;
62574;SDS011;53112;45.602;11.904;2022-08-20T07:29:39;6.38;;;2.30;;
62574;SDS011;53112;45.602;11.904;2022-08-20T07:32:23;4.22;;;2.40;;
62574;SDS011;53112;45.602;11.904;2022-08-20T07:34:59;4.90;;;2.75;;
62574;SDS011;53112;45.602;11.904;2022-08-20T07:37:25;7.13;;;2.83;;
62574;SDS011;53112;45.602;11.904;2022-08-20T07:39:51;5.25;;;3.05;;
62574;SDS011;53112;45.602;11.904;2022-08-20T07:42:17;6.90;;;2.80;;
62574;SDS011;53112;45.602;11.904;2022-08-20T07:44:44;5.18;;;2.70;;
62574;SDS011;53112;45.602;11.904;2022-08-20T07:47:10;4.68;;;2.40;;
62574;SDS011;53112;45.602;11.904;2022-08-20T07:49:39;5.10;;;2.67;;
62574;SDS011;53112;45.602;11.904;2022-08-20T07:52:05;4.55;;;2.45;;
62574;SDS011;53112;45.602;11.904;2022-08-20T07:54:31;3.15;;;2.22;;
62574;SDS011;53112;45.602;11.904;2022-08-20T07:57:00;4.68;;;2.20;;
62574;SDS011;53112;45.602;11.904;2022-08-20T07:59:28;4.75;;;1.90;;
62574;SDS011;53112;45.602;11.904;2022-08-20T08:01:54;5.00;;;2.03;;
62574;SDS011;53112;45.602;11.904;2022-08-20T08:04:21;5.80;;;2.33;;
62574;SDS011;53112;45.602;11.904;2022-08-20T08:06:48;6.28;;;2.33;;
62574;SDS011;53112;45.602;11.904;2022-08-20T08:09:15;5.10;;;2.20;;
62574;SDS011;53112;45.602;11.904;2022-08-20T08:11:43;4.22;;;2.20;;
62574;SDS011;53112;45.602;11.904;2022-08-20T08:14:17;3.85;;;2.05;;
62574;SDS011;53112;45.602;11.904;2022-08-20T08:16:47;3.10;;;2.10;;
62574;SDS011;53112;45.602;11.904;2022-08-20T08:19:14;4.70;;;1.90;;
62574;SDS011;53112;45.602;11.904;2022-08-20T08:21:42;3.05;;;1.80;;
62574;SDS011;53112;45.602;11.904;2022-08-20T08:24:09;2.88;;;1.70;;
62574;SDS011;53112;45.602;11.904;2022-08-20T08:26:35;3.83;;;2.00;;
62574;SDS011;53112;45.602;11.904;2022-08-20T08:29:02;3.67;;;2.00;;
62574;SDS011;53112;45.602;11.904;2022-08-20T08:31:32;6.10;;;2.10;;
62574;SDS011;53112;45.602;11.904;2022-08-20T08:33:58;5.13;;;2.13;;
62574;SDS011;53112;45.602;11.904;2022-08-20T08:36:24;2.55;;;2.00;;
62574;SDS011;53112;45.602;11.904;2022-08-20T08:38:51;5.22;;;2.25;;
62574;SDS011;53112;45.602;11.904;2022-08-20T08:41:19;4.53;;;2.05;;
62574;SDS011;53112;45.602;11.904;2022-08-20T08:43:53;4.28;;;2.30;;
62574;SDS011;53112;45.602;11.904;2022-08-20T08:46:28;4.53;;;2.00;;
62574;SDS011;53112;45.602;11.904;2022-08-20T08:48:59;4.35;;;2.10;;
62574;SDS011;53112;45.602;11.904;2022-08-20T08:51:32;3.72;;;2.33;;
62574;SDS011;53112;45.602;11.904;2022-08-20T08:54:14;4.00;;;1.98;;
62574;SDS011;53112;45.602;11.904;2022-08-20T08:56:43;4.00;;;2.10;;
62574;SDS011;53112;45.602;11.904;2022-08-20T08:59:10;5.00;;;2.20;;
62574;SDS011;53112;45.602;11.904;2022-08-20T09:01:40;5.10;;;1.70;;
62574;SDS011;53112;45.602;11.904;2022-08-20T09:04:13;4.97;;;2.20;;
62574;SDS011;53112;45.602;11.904;2022-08-20T09:06:41;3.08;;;1.83;;
62574;SDS011;53112;45.602;11.904;2022-08-20T09:09:18;4.05;;;1.73;;
62574;SDS011;53112;45.602;11.904;2022-08-20T09:11:54;6.25;;;1.90;;
62574;SDS011;53112;45.602;11.904;2022-08-20T09:14:26;4.50;;;1.83;;
62574;SDS011;53112;45.602;11.904;2022-08-20T09:16:52;4.53;;;1.70;;
62574;SDS011;53112;45.602;11.904;2022-08-20T09:19:18;4.00;;;1.60;;
62574;SDS011;53112;45.602;11.904;2022-08-20T09:21:44;4.18;;;1.70;;
62574;SDS011;53112;45.602;11.904;2022-08-20T09:24:10;3.03;;;1.60;;
62574;SDS011;53112;45.602;11.904;2022-08-20T09:26:36;3.58;;;1.50;;
62574;SDS011;53112;45.602;11.904;2022-08-20T09:29:02;4.90;;;1.85;;
62574;SDS011;53112;45.602;11.904;2022-08-20T09:31:27;3.33;;;1.67;;
62574;SDS011;53112;45.602;11.904;2022-08-20T09:33:54;3.50;;;1.50;;
62574;SDS011;53112;45.602;11.904;2022-08-20T09:36:20;3.85;;;1.60;;
62574;SDS011;53112;45.602;11.904;2022-08-20T09:38:46;3.20;;;1.50;;
62574;SDS011;53112;45.602;11.904;2022-08-20T09:41:12;2.35;;;1.52;;
62574;SDS011;53112;45.602;11.904;2022-08-20T09:43:39;2.05;;;1.50;;
62574;SDS011;53112;45.602;11.904;2022-08-20T09:46:05;3.08;;;1.50;;
62574;SDS011;53112;45.602;11.904;2022-08-20T09:48:30;3.42;;;1.52;;
62574;SDS011;53112;45.602;11.904;2022-08-20T09:50:56;2.85;;;1.33;;
62574;SDS011;53112;45.602;11.904;2022-08-20T09:53:23;2.45;;;1.50;;
62574;SDS011;53112;45.602;11.904;2022-08-20T09:55:50;3.42;;;1.42;;
62574;SDS011;53112;45.602;11.904;2022-08-20T09:58:22;1.67;;;1.45;;
62574;SDS011;53112;45.602;11.904;2022-08-20T10:01:06;1.42;;;1.20;;
62574;SDS011;53112;45.602;11.904;2022-08-20T10:03:34;3.15;;;1.50;;
62574;SDS011;53112;45.602;11.904;2022-08-20T10:06:00;2.55;;;1.50;;
62574;SDS011;53112;45.602;11.904;2022-08-20T10:08:27;2.13;;;1.50;;
62574;SDS011;53112;45.602;11.904;2022-08-20T10:14:15;3.05;;;1.30;;
62574;SDS011;53112;45.602;11.904;2022-08-20T10:16:41;2.58;;;1.58;;
62574;SDS011;53112;45.602;11.904;2022-08-20T10:19:07;3.70;;;1.70;;
62574;SDS011;53112;45.602;11.904;2022-08-20T10:21:33;3.60;;;1.60;;
62574;SDS011;53112;45.602;11.904;2022-08-20T10:23:59;5.68;;;1.60;;
62574;SDS011;53112;45.602;11.904;2022-08-20T10:26:25;2.67;;;1.30;;
62574;SDS011;53112;45.602;11.904;2022-08-20T10:28:51;3.28;;;1.50;;
62574;SDS011;53112;45.602;11.904;2022-08-20T10:31:17;3.58;;;1.80;;
62574;SDS011;53112;45.602;11.904;2022-08-20T10:33:43;3.75;;;1.60;;
62574;SDS011;53112;45.602;11.904;2022-08-20T10:36:10;4.13;;;1.60;;
62574;SDS011;53112;45.602;11.904;2022-08-20T10:38:40;3.40;;;1.60;;
62574;SDS011;53112;45.602;11.904;2022-08-20T10:41:07;2.47;;;1.45;;
62574;SDS011;53112;45.602;11.904;2022-08-20T10:43:33;3.35;;;1.50;;
62574;SDS011;53112;45.602;11.904;2022-08-20T10:45:59;3.72;;;1.60;;
62574;SDS011;53112;45.602;11.904;2022-08-20T10:48:25;3.03;;;1.52;;
62574;SDS011;53112;45.602;11.904;2022-08-20T10:50:52;2.50;;;1.50;;
62574;SDS011;53112;45.602;11.904;2022-08-20T10:53:18;3.97;;;1.52;;
62574;SDS011;53112;45.602;11.904;2022-08-20T10:55:44;3.85;;;1.52;;
62574;SDS011;53112;45.602;11.904;2022-08-20T10:58:10;5.15;;;1.63;;
62574;SDS011;53112;45.602;11.904;2022-08-20T11:00:37;3.10;;;1.42;;
62574;SDS011;53112;45.602;11.904;2022-08-20T11:03:04;2.05;;;1.42;;
62574;SDS011;53112;45.602;11.904;2022-08-20T11:05:30;3.10;;;1.40;;
62574;SDS011;53112;45.602;11.904;2022-08-20T11:07:56;3.17;;;1.40;;
62574;SDS011;53112;45.602;11.904;2022-08-20T11:10:24;3.17;;;1.50;;
62574;SDS011;53112;45.602;11.904;2022-08-20T11:12:52;5.43;;;1.48;;
62574;SDS011;53112;45.602;11.904;2022-08-20T11:15:18;2.17;;;1.30;;
62574;SDS011;53112;45.602;11.904;2022-08-20T11:17:44;2.10;;;1.35;;
62574;SDS011;53112;45.602;11.904;2022-08-20T11:20:12;1.50;;;1.30;;
62574;SDS011;53112;45.602;11.904;2022-08-20T11:22:39;1.67;;;1.27;;
62574;SDS011;53112;45.602;11.904;2022-08-20T11:25:05;3.13;;;1.40;;
62574;SDS011;53112;45.602;11.904;2022-08-20T11:27:33;2.70;;;1.38;;
62574;SDS011;53112;45.602;11.904;2022-08-20T11:30:05;4.28;;;1.58;;
62574;SDS011;53112;45.602;11.904;2022-08-20T11:32:33;2.85;;;1.40;;
62574;SDS011;53112;45.602;11.904;2022-08-20T11:34:59;1.35;;;1.25;;
62574;SDS011;53112;45.602;11.904;2022-08-20T11:37:25;1.58;;;1.25;;
62574;SDS011;53112;45.602;11.904;2022-08-20T11:39:52;1.88;;;1.38;;
62574;SDS011;53112;45.602;11.904;2022-08-20T11:42:18;4.20;;;1.40;;
62574;SDS011;53112;45.602;11.904;2022-08-20T11:44:44;4.28;;;1.30;;
62574;SDS011;53112;45.602;11.904;2022-08-20T11:47:18;1.50;;;1.20;;
62574;SDS011;53112;45.602;11.904;2022-08-20T11:49:57;1.63;;;1.15;;
62574;SDS011;53112;45.602;11.904;2022-08-20T11:52:30;2.55;;;1.30;;
62574;SDS011;53112;45.602;11.904;2022-08-20T11:54:57;1.75;;;1.40;;
62574;SDS011;53112;45.602;11.904;2022-08-20T11:57:25;2.42;;;1.45;;
62574;SDS011;53112;45.602;11.904;2022-08-20T11:59:53;3.43;;;1.33;;
62574;SDS011;53112;45.602;11.904;2022-08-20T12:02:21;2.55;;;1.25;;
62574;SDS011;53112;45.602;11.904;2022-08-20T12:04:47;1.23;;;1.08;;
62574;SDS011;53112;45.602;11.904;2022-08-20T12:07:14;1.58;;;1.10;;
62574;SDS011;53112;45.602;11.904;2022-08-20T12:12:10;1.48;;;1.10;;
62574;SDS011;53112;45.602;11.904;2022-08-20T12:14:37;2.78;;;1.38;;
62574;SDS011;53112;45.602;11.904;2022-08-20T12:17:10;2.88;;;1.30;;
62574;SDS011;53112;45.602;11.904;2022-08-20T12:19:38;1.20;;;1.10;;
62574;SDS011;53112;45.602;11.904;2022-08-20T12:22:06;2.25;;;1.15;;
62574;SDS011;53112;45.602;11.904;2022-08-20T12:24:33;1.77;;;1.10;;
62574;SDS011;53112;45.602;11.904;2022-08-20T12:27:34;1.13;;;1.02;;
62574;SDS011;53112;45.602;11.904;2022-08-20T12:29:56;1.13;;;1.00;;
62574;SDS011;53112;45.602;11.904;2022-08-20T12:32:24;1.65;;;1.20;;
62574;SDS011;53112;45.602;11.904;2022-08-20T12:34:51;1.25;;;1.10;;
62574;SDS011;53112;45.602;11.904;2022-08-20T12:37:19;1.50;;;1.20;;
62574;SDS011;53112;45.602;11.904;2022-08-20T12:39:49;2.38;;;1.20;;
62574;SDS011;53112;45.602;11.904;2022-08-20T12:42:17;3.17;;;1.30;;
62574;SDS011;53112;45.602;11.904;2022-08-20T12:44:44;1.38;;;0.98;;
62574;SDS011;53112;45.602;11.904;2022-08-20T12:47:12;2.13;;;1.00;;
62574;SDS011;53112;45.602;11.904;2022-08-20T12:49:44;4.95;;;1.38;;
62574;SDS011;53112;45.602;11.904;2022-08-20T12:52:13;1.77;;;1.00;;
62574;SDS011;53112;45.602;11.904;2022-08-20T12:54:41;2.05;;;1.00;;
62574;SDS011;53112;45.602;11.904;2022-08-20T12:57:41;2.65;;;1.25;;
62574;SDS011;53112;45.602;11.904;2022-08-20T13:00:07;1.42;;;1.27;;
62574;SDS011;53112;45.602;11.904;2022-08-20T13:05:03;1.25;;;1.10;;
62574;SDS011;53112;45.602;11.904;2022-08-20T13:07:30;2.38;;;1.20;;
62574;SDS011;53112;45.602;11.904;2022-08-20T13:09:57;1.52;;;1.10;;
62574;SDS011;53112;45.602;11.904;2022-08-20T13:12:24;1.70;;;1.02;;
62574;SDS011;53112;45.602;11.904;2022-08-20T13:14:50;2.25;;;1.30;;
62574;SDS011;53112;45.602;11.904;2022-08-20T13:17:17;1.45;;;1.20;;
62574;SDS011;53112;45.602;11.904;2022-08-20T13:19:43;1.20;;;1.00;;
62574;SDS011;53112;45.602;11.904;2022-08-20T13:22:10;2.20;;;1.23;;
62574;SDS011;53112;45.602;11.904;2022-08-20T13:24:38;1.48;;;1.13;;
62574;SDS011;53112;45.602;11.904;2022-08-20T13:27:10;3.45;;;1.20;;
62574;SDS011;53112;45.602;11.904;2022-08-20T13:29:48;2.00;;;1.10;;
62574;SDS011;53112;45.602;11.904;2022-08-20T13:32:16;1.13;;;1.02;;
62574;SDS011;53112;45.602;11.904;2022-08-20T13:34:42;1.55;;;1.02;;
62574;SDS011;53112;45.602;11.904;2022-08-20T13:37:16;1.23;;;1.05;;
62574;SDS011;53112;45.602;11.904;2022-08-20T13:39:45;2.70;;;1.20;;
62574;SDS011;53112;45.602;11.904;2022-08-20T13:42:11;1.83;;;1.10;;
62574;SDS011;53112;45.602;11.904;2022-08-20T13:44:38;2.08;;;1.15;;
62574;SDS011;53112;45.602;11.904;2022-08-20T13:47:21;1.30;;;1.10;;
62574;SDS011;53112;45.602;11.904;2022-08-20T13:49:53;1.00;;;0.85;;
62574;SDS011;53112;45.602;11.904;2022-08-20T13:52:32;1.23;;;1.05;;
62574;SDS011;53112;45.602;11.904;2022-08-20T13:54:59;1.10;;;1.10;;
62574;SDS011;53112;45.602;11.904;2022-08-20T13:57:25;1.52;;;1.00;;
62574;SDS011;53112;45.602;11.904;2022-08-20T13:59:53;2.45;;;1.00;;
62574;SDS011;53112;45.602;11.904;2022-08-20T14:02:20;1.02;;;1.00;;
62574;SDS011;53112;45.602;11.904;2022-08-20T14:04:48;1.20;;;1.00;;
62574;SDS011;53112;45.602;11.904;2022-08-20T14:07:20;1.25;;;1.10;;
62574;SDS011;53112;45.602;11.904;2022-08-20T14:09:53;3.55;;;1.10;;
62574;SDS011;53112;45.602;11.904;2022-08-20T14:12:23;1.30;;;1.20;;
62574;SDS011;53112;45.602;11.904;2022-08-20T14:14:50;2.13;;;1.10;;
62574;SDS011;53112;45.602;11.904;2022-08-20T14:19:58;1.57;;;1.20;;
62574;SDS011;53112;45.602;11.904;2022-08-20T14:22:27;1.98;;;1.10;;
62574;SDS011;53112;45.602;11.904;2022-08-20T14:24:53;1.33;;;1.10;;
62574;SDS011;53112;45.602;11.904;2022-08-20T14:27:20;1.38;;;0.95;;
62574;SDS011;53112;45.602;11.904;2022-08-20T14:29:47;3.80;;;1.10;;
62574;SDS011;53112;45.602;11.904;2022-08-20T14:32:15;3.75;;;1.20;;
62574;SDS011;53112;45.602;11.904;2022-08-20T14:34:42;1.88;;;1.00;;
62574;SDS011;53112;45.602;11.904;2022-08-20T14:37:08;1.75;;;1.20;;
62574;SDS011;53112;45.602;11.904;2022-08-20T14:39:40;0.80;;;0.80;;
62574;SDS011;53112;45.602;11.904;2022-08-20T14:42:07;1.25;;;1.00;;
62574;SDS011;53112;45.602;11.904;2022-08-20T14:44:34;1.10;;;1.00;;
62574;SDS011;53112;45.602;11.904;2022-08-20T14:47:10;1.00;;;0.90;;
62574;SDS011;53112;45.602;11.904;2022-08-20T14:49:42;1.95;;;1.10;;
62574;SDS011;53112;45.602;11.904;2022-08-20T14:52:09;2.03;;;1.15;;
62574;SDS011;53112;45.602;11.904;2022-08-20T14:54:36;1.20;;;1.10;;
62574;SDS011;53112;45.602;11.904;2022-08-20T14:57:03;1.55;;;1.30;;